Algosea — CFN4229 — position and weather

sailwx.info

Track history (hours):
 
Tides and Currents Weather Stations Pressure Air Temp Water Temp Dewpoint Dewpoint Depression Visibility Wind Speed Wind Dir Waves Ship Positions

Algosea

Last reported at 2014-Sep-15 21:32 UTC. Time now 2014-Sep-16 09:22 UTC.
Position N 45°12' W 074°18'.

Length 144 m; draft 6.3 m.

Type: Ship. MMSI: 316006868.

Date/timePositionNaut miles runAvg speedWind from/ knotsBaromVisibWave heightAir tempDewpointWater temp
2014-Sep-15 21:32N 45°12' W 074°18'10 9.6
2014-Sep-15 20:28N 45°13' W 074°04'8 8.2
2014-Sep-15 19:33N 45°18' W 073°56'1 0.9
2014-Sep-15 18:33N 45°19' W 073°55'8 8.1
2014-Sep-15 17:33N 45°24' W 073°46'8 7.8
2014-Sep-15 16:33N 45°24' W 073°35'2 2.2
2014-Sep-15 15:33N 45°25' W 073°32'5 4.2
2014-Sep-15 14:15N 45°30' W 073°31'1 1.8
2014-Sep-15 13:33N 45°31' W 073°31'4 3.3
2014-Sep-15 12:27N 45°35' W 073°30'8 7.2
2014-Sep-15 11:22N 45°42' W 073°27'37 9.7
2014-Sep-15 07:31N 46°11' W 072°54'1010.7
2014-Sep-15 06:33N 46°16' W 072°41'9 9.1
2014-Sep-15 05:33N 46°21' W 072°30'10 9.6
2014-Sep-15 04:33N 46°26' W 072°18'9 8.8
2014-Sep-15 03:33N 46°33' W 072°10'  
2014-Sep-10 11:26N 46°42' W 071°31'2611.7
2014-Sep-10 09:12N 46°34' W 072°07'914.0
2014-Sep-10 08:33N 46°27' W 072°15'1413.6
2014-Sep-10 07:33N 46°20' W 072°32'1212.0
2014-Sep-10 06:33N 46°14' W 072°47'1513.2
2014-Sep-10 05:26N 46°04' W 073°03'6 6.7
2014-Sep-10 04:28N 45°60' W 073°10'0 0.0
2014-Sep-10 03:28N 45°60' W 073°10'0 0.0
2014-Sep-10 02:33N 45°60' W 073°10'0 0.0
2014-Sep-09 23:32N 45°60' W 073°10'0 0.0
2014-Sep-09 16:30N 45°60' W 073°10'0 0.0
2014-Sep-09 15:33N 45°60' W 073°10'0 0.0
2014-Sep-09 14:33N 45°60' W 073°10'0 0.0
2014-Sep-09 13:33N 45°60' W 073°10'0 0.0
2014-Sep-09 12:33N 45°60' W 073°10'0 0.0
2014-Sep-09 05:18N 45°60' W 073°10'0 0.0
2014-Sep-09 04:29N 45°60' W 073°10'0 0.0
2014-Sep-09 03:33N 45°60' W 073°10'0 0.0
2014-Sep-09 01:14N 45°60' W 073°10'0 0.0
2014-Sep-09 00:33N 45°60' W 073°10'0 0.0
2014-Sep-08 23:33N 45°60' W 073°10'0 0.3
2014-Sep-08 22:32N 46°00' W 073°10'4 4.1
2014-Sep-08 21:33N 45°57' W 073°13'7 7.5
2014-Sep-08 20:33N 45°50' W 073°18'8 7.8
2014-Sep-08 19:33N 45°44' W 073°25'8 8.0
2014-Sep-08 18:33N 45°37' W 073°30'0 0.2
2014-Sep-08 17:33N 45°37' W 073°30'0 0.0
2014-Sep-08 16:33N 45°37' W 073°30'0 0.0
2014-Sep-08 15:33N 45°37' W 073°30'0 0.0
2014-Sep-08 14:33N 45°37' W 073°30'0 0.0
2014-Sep-08 13:33N 45°37' W 073°30'0 0.0
2014-Sep-08 12:33N 45°37' W 073°30'0 0.0
2014-Sep-08 11:33N 45°37' W 073°30'0 0.0
2014-Sep-08 10:33N 45°37' W 073°30'0 0.0
2014-Sep-08 09:33N 45°37' W 073°30'0 0.0
2014-Sep-08 08:33N 45°37' W 073°30'0 0.0
2014-Sep-08 07:33N 45°37' W 073°30'0 0.0
2014-Sep-08 06:33N 45°37' W 073°30'1 1.5
2014-Sep-08 05:33N 45°38' W 073°29'0 0.0
2014-Sep-08 04:33N 45°38' W 073°29'0 0.0
2014-Sep-08 03:33N 45°38' W 073°29'0 0.0
2014-Sep-08 02:33N 45°38' W 073°29'0 0.0
2014-Sep-08 01:33N 45°38' W 073°29'0 0.0
2014-Sep-08 00:33N 45°38' W 073°29'0 0.1
2014-Sep-07 23:33N 45°38' W 073°29'10 4.8
2014-Sep-07 21:33N 45°28' W 073°30'5 4.6
2014-Sep-07 20:33N 45°24' W 073°34'3 3.0
2014-Sep-07 19:33N 45°24' W 073°38'8 8.1
2014-Sep-07 18:33N 45°22' W 073°49'5 5.4
2014-Sep-07 17:33N 45°19' W 073°55'2 1.9
2014-Sep-07 16:33N 45°17' W 073°56'9 8.6
2014-Sep-07 15:33N 45°14' W 074°08'1111.1
2014-Sep-07 14:33N 45°09' W 074°22'1510.7
2014-Sep-07 13:07N 45°00' W 074°40'74 7.7
2014-Sep-07 03:32N 44°16' W 076°03'1111.6
2014-Sep-07 02:33N 44°12' W 076°18'1010.2
2014-Sep-07 01:33N 44°03' W 076°26'1211.6
2014-Sep-07 00:33N 43°54' W 076°35'  
Track history (hours):
 
Tides and Currents Weather Stations Pressure Air Temp Water Temp Dewpoint Dewpoint Depression Visibility Wind Speed Wind Dir Waves Ship Positions

Algosea

Last reported at 2014-Sep-15 21:32 UTC. Time now 2014-Sep-16 09:22 UTC.
Position N 45°12' W 074°18'.

Length 144 m; draft 6.3 m.

Type: Ship. MMSI: 316006868.

Date/timePositionNaut miles runAvg speedWind from/ knotsBaromVisibWave heightAir tempDewpointWater temp
2014-Sep-15 21:32N 45°12' W 074°18'10 9.6
2014-Sep-15 20:28N 45°13' W 074°04'8 8.2
2014-Sep-15 19:33N 45°18' W 073°56'1 0.9
2014-Sep-15 18:33N 45°19' W 073°55'8 8.1
2014-Sep-15 17:33N 45°24' W 073°46'8 7.8
2014-Sep-15 16:33N 45°24' W 073°35'2 2.2
2014-Sep-15 15:33N 45°25' W 073°32'5 4.2
2014-Sep-15 14:15N 45°30' W 073°31'1 1.8
2014-Sep-15 13:33N 45°31' W 073°31'4 3.3
2014-Sep-15 12:27N 45°35' W 073°30'8 7.2
2014-Sep-15 11:22N 45°42' W 073°27'37 9.7
2014-Sep-15 07:31N 46°11' W 072°54'1010.7
2014-Sep-15 06:33N 46°16' W 072°41'9 9.1
2014-Sep-15 05:33N 46°21' W 072°30'10 9.6
2014-Sep-15 04:33N 46°26' W 072°18'9 8.8
2014-Sep-15 03:33N 46°33' W 072°10'  
2014-Sep-10 11:26N 46°42' W 071°31'2611.7
2014-Sep-10 09:12N 46°34' W 072°07'914.0
2014-Sep-10 08:33N 46°27' W 072°15'1413.6
2014-Sep-10 07:33N 46°20' W 072°32'1212.0
2014-Sep-10 06:33N 46°14' W 072°47'1513.2
2014-Sep-10 05:26N 46°04' W 073°03'6 6.7
2014-Sep-10 04:28N 45°60' W 073°10'0 0.0
2014-Sep-10 03:28N 45°60' W 073°10'0 0.0
2014-Sep-10 02:33N 45°60' W 073°10'0 0.0
2014-Sep-09 23:32N 45°60' W 073°10'0 0.0
2014-Sep-09 16:30N 45°60' W 073°10'0 0.0
2014-Sep-09 15:33N 45°60' W 073°10'0 0.0
2014-Sep-09 14:33N 45°60' W 073°10'0 0.0
2014-Sep-09 13:33N 45°60' W 073°10'0 0.0
2014-Sep-09 12:33N 45°60' W 073°10'0 0.0
2014-Sep-09 05:18N 45°60' W 073°10'0 0.0
2014-Sep-09 04:29N 45°60' W 073°10'0 0.0
2014-Sep-09 03:33N 45°60' W 073°10'0 0.0
2014-Sep-09 01:14N 45°60' W 073°10'0 0.0
2014-Sep-09 00:33N 45°60' W 073°10'0 0.0
2014-Sep-08 23:33N 45°60' W 073°10'0 0.3
2014-Sep-08 22:32N 46°00' W 073°10'4 4.1
2014-Sep-08 21:33N 45°57' W 073°13'7 7.5
2014-Sep-08 20:33N 45°50' W 073°18'8 7.8
2014-Sep-08 19:33N 45°44' W 073°25'8 8.0
2014-Sep-08 18:33N 45°37' W 073°30'0 0.2
2014-Sep-08 17:33N 45°37' W 073°30'0 0.0
2014-Sep-08 16:33N 45°37' W 073°30'0 0.0
2014-Sep-08 15:33N 45°37' W 073°30'0 0.0
2014-Sep-08 14:33N 45°37' W 073°30'0 0.0
2014-Sep-08 13:33N 45°37' W 073°30'0 0.0
2014-Sep-08 12:33N 45°37' W 073°30'0 0.0
2014-Sep-08 11:33N 45°37' W 073°30'0 0.0
2014-Sep-08 10:33N 45°37' W 073°30'0 0.0
2014-Sep-08 09:33N 45°37' W 073°30'0 0.0
2014-Sep-08 08:33N 45°37' W 073°30'0 0.0
2014-Sep-08 07:33N 45°37' W 073°30'0 0.0
2014-Sep-08 06:33N 45°37' W 073°30'1 1.5
2014-Sep-08 05:33N 45°38' W 073°29'0 0.0
2014-Sep-08 04:33N 45°38' W 073°29'0 0.0
2014-Sep-08 03:33N 45°38' W 073°29'0 0.0
2014-Sep-08 02:33N 45°38' W 073°29'0 0.0
2014-Sep-08 01:33N 45°38' W 073°29'0 0.0
2014-Sep-08 00:33N 45°38' W 073°29'0 0.1
2014-Sep-07 23:33N 45°38' W 073°29'10 4.8
2014-Sep-07 21:33N 45°28' W 073°30'5 4.6
2014-Sep-07 20:33N 45°24' W 073°34'3 3.0
2014-Sep-07 19:33N 45°24' W 073°38'8 8.1
2014-Sep-07 18:33N 45°22' W 073°49'5 5.4
2014-Sep-07 17:33N 45°19' W 073°55'2 1.9
2014-Sep-07 16:33N 45°17' W 073°56'9 8.6
2014-Sep-07 15:33N 45°14' W 074°08'1111.1
2014-Sep-07 14:33N 45°09' W 074°22'1510.7
2014-Sep-07 13:07N 45°00' W 074°40'74 7.7
2014-Sep-07 03:32N 44°16' W 076°03'1111.6
2014-Sep-07 02:33N 44°12' W 076°18'1010.2
2014-Sep-07 01:33N 44°03' W 076°26'1211.6
2014-Sep-07 00:33N 43°54' W 076°35'  

Dump ship's entire track history